sensor_id;sensor_type;location;lat;lon;timestamp;temperature;humidity
12089;DHT22;6107;49.078;8.578;2022-12-07T00:01:31;5.00;99.90
12089;DHT22;6107;49.078;8.578;2022-12-07T00:03:59;5.00;99.90
12089;DHT22;6107;49.078;8.578;2022-12-07T00:06:51;5.20;99.90
12089;DHT22;6107;49.078;8.578;2022-12-07T00:09:17;5.10;99.90
12089;DHT22;6107;49.078;8.578;2022-12-07T00:11:44;5.00;99.90
12089;DHT22;6107;49.078;8.578;2022-12-07T00:14:12;5.00;99.90
12089;DHT22;6107;49.078;8.578;2022-12-07T00:16:38;5.10;99.90
12089;DHT22;6107;49.078;8.578;2022-12-07T00:19:04;5.00;99.90
12089;DHT22;6107;49.078;8.578;2022-12-07T00:21:32;4.90;99.90
12089;DHT22;6107;49.078;8.578;2022-12-07T00:23:58;4.90;99.90
12089;DHT22;6107;49.078;8.578;2022-12-07T00:26:28;5.00;99.90
12089;DHT22;6107;49.078;8.578;2022-12-07T00:28:56;5.20;99.90
12089;DHT22;6107;49.078;8.578;2022-12-07T00:31:28;5.10;99.90
12089;DHT22;6107;49.078;8.578;2022-12-07T00:33:54;5.00;99.90
12089;DHT22;6107;49.078;8.578;2022-12-07T00:36:21;5.10;99.90
12089;DHT22;6107;49.078;8.578;2022-12-07T00:38:47;5.10;99.90
12089;DHT22;6107;49.078;8.578;2022-12-07T00:41:18;5.00;99.90
12089;DHT22;6107;49.078;8.578;2022-12-07T00:43:45;5.10;99.90
12089;DHT22;6107;49.078;8.578;2022-12-07T00:46:12;5.10;99.90
12089;DHT22;6107;49.078;8.578;2022-12-07T00:48:38;5.20;99.90
12089;DHT22;6107;49.078;8.578;2022-12-07T00:51:04;5.20;99.90
12089;DHT22;6107;49.078;8.578;2022-12-07T00:53:31;4.90;99.90
12089;DHT22;6107;49.078;8.578;2022-12-07T00:56:07;5.00;99.90
12089;DHT22;6107;49.078;8.578;2022-12-07T00:58:33;4.90;99.90
12089;DHT22;6107;49.078;8.578;2022-12-07T01:01:04;4.70;99.90
12089;DHT22;6107;49.078;8.578;2022-12-07T01:03:29;4.80;99.90
12089;DHT22;6107;49.078;8.578;2022-12-07T01:05:56;4.80;99.90
12089;DHT22;6107;49.078;8.578;2022-12-07T01:08:23;4.80;99.90
12089;DHT22;6107;49.078;8.578;2022-12-07T01:10:49;4.70;99.90
12089;DHT22;6107;49.078;8.578;2022-12-07T01:13:15;4.80;99.90
12089;DHT22;6107;49.078;8.578;2022-12-07T01:15:43;4.80;99.90
12089;DHT22;6107;49.078;8.578;2022-12-07T01:18:10;4.90;99.90
12089;DHT22;6107;49.078;8.578;2022-12-07T01:20:36;4.90;99.90
12089;DHT22;6107;49.078;8.578;2022-12-07T01:23:02;4.90;99.90
12089;DHT22;6107;49.078;8.578;2022-12-07T01:25:28;4.80;99.90
12089;DHT22;6107;49.078;8.578;2022-12-07T01:27:53;4.90;99.90
12089;DHT22;6107;49.078;8.578;2022-12-07T01:30:19;4.90;99.90
12089;DHT22;6107;49.078;8.578;2022-12-07T01:32:44;4.80;99.90
12089;DHT22;6107;49.078;8.578;2022-12-07T01:35:10;4.90;99.90
12089;DHT22;6107;49.078;8.578;2022-12-07T01:37:36;4.90;99.90
12089;DHT22;6107;49.078;8.578;2022-12-07T01:40:07;4.90;99.90
12089;DHT22;6107;49.078;8.578;2022-12-07T01:42:34;5.00;99.90
12089;DHT22;6107;49.078;8.578;2022-12-07T01:47:55;4.80;99.90
12089;DHT22;6107;49.078;8.578;2022-12-07T01:50:22;4.90;99.90
12089;DHT22;6107;49.078;8.578;2022-12-07T01:52:50;4.90;99.90
12089;DHT22;6107;49.078;8.578;2022-12-07T01:55:17;4.70;99.90
12089;DHT22;6107;49.078;8.578;2022-12-07T01:57:49;4.60;99.90
12089;DHT22;6107;49.078;8.578;2022-12-07T02:00:16;4.80;99.90
12089;DHT22;6107;49.078;8.578;2022-12-07T02:02:55;4.60;99.90
12089;DHT22;6107;49.078;8.578;2022-12-07T02:05:25;4.60;99.90
12089;DHT22;6107;49.078;8.578;2022-12-07T02:07:53;4.60;99.90
12089;DHT22;6107;49.078;8.578;2022-12-07T02:10:30;4.70;99.90
12089;DHT22;6107;49.078;8.578;2022-12-07T02:13:12;4.80;99.90
12089;DHT22;6107;49.078;8.578;2022-12-07T02:15:53;4.80;99.90
12089;DHT22;6107;49.078;8.578;2022-12-07T02:29:24;4.20;99.90
12089;DHT22;6107;49.078;8.578;2022-12-07T02:34:31;4.30;99.90
12089;DHT22;6107;49.078;8.578;2022-12-07T02:37:05;4.30;99.90
12089;DHT22;6107;49.078;8.578;2022-12-07T02:39:44;4.40;99.90
12089;DHT22;6107;49.078;8.578;2022-12-07T02:42:17;4.50;99.90
12089;DHT22;6107;49.078;8.578;2022-12-07T02:44:44;4.40;99.90
12089;DHT22;6107;49.078;8.578;2022-12-07T02:47:13;4.30;99.90
12089;DHT22;6107;49.078;8.578;2022-12-07T02:49:39;4.40;99.90
12089;DHT22;6107;49.078;8.578;2022-12-07T02:52:05;4.40;99.90
12089;DHT22;6107;49.078;8.578;2022-12-07T02:54:31;4.30;99.90
12089;DHT22;6107;49.078;8.578;2022-12-07T02:59:48;4.40;99.90
12089;DHT22;6107;49.078;8.578;2022-12-07T03:05:20;4.50;99.90
12089;DHT22;6107;49.078;8.578;2022-12-07T03:10:50;4.40;99.90
12089;DHT22;6107;49.078;8.578;2022-12-07T03:13:29;4.30;99.90
12089;DHT22;6107;49.078;8.578;2022-12-07T03:16:15;4.40;99.90
12089;DHT22;6107;49.078;8.578;2022-12-07T03:19:11;4.20;99.90
12089;DHT22;6107;49.078;8.578;2022-12-07T03:21:40;4.30;99.90
12089;DHT22;6107;49.078;8.578;2022-12-07T03:24:12;4.30;99.90
12089;DHT22;6107;49.078;8.578;2022-12-07T03:26:44;4.20;99.90
12089;DHT22;6107;49.078;8.578;2022-12-07T03:29:19;4.20;99.90
12089;DHT22;6107;49.078;8.578;2022-12-07T03:31:53;4.40;99.90
12089;DHT22;6107;49.078;8.578;2022-12-07T03:35:00;4.30;99.90
12089;DHT22;6107;49.078;8.578;2022-12-07T03:37:23;4.30;99.90
12089;DHT22;6107;49.078;8.578;2022-12-07T03:42:43;4.40;99.90
12089;DHT22;6107;49.078;8.578;2022-12-07T03:45:09;4.30;99.90
12089;DHT22;6107;49.078;8.578;2022-12-07T03:48:04;4.10;99.90
12089;DHT22;6107;49.078;8.578;2022-12-07T03:50:42;4.00;99.90
12089;DHT22;6107;49.078;8.578;2022-12-07T03:53:34;4.00;99.90
12089;DHT22;6107;49.078;8.578;2022-12-07T03:55:59;4.00;99.90
12089;DHT22;6107;49.078;8.578;2022-12-07T03:58:25;4.10;99.90
12089;DHT22;6107;49.078;8.578;2022-12-07T04:00:51;4.00;99.90
12089;DHT22;6107;49.078;8.578;2022-12-07T04:03:17;4.10;99.90
12089;DHT22;6107;49.078;8.578;2022-12-07T04:05:44;4.10;99.90
12089;DHT22;6107;49.078;8.578;2022-12-07T04:08:09;4.10;99.90
12089;DHT22;6107;49.078;8.578;2022-12-07T04:10:35;4.20;99.90
12089;DHT22;6107;49.078;8.578;2022-12-07T04:13:01;4.10;99.90
12089;DHT22;6107;49.078;8.578;2022-12-07T04:15:27;4.20;99.90
12089;DHT22;6107;49.078;8.578;2022-12-07T04:17:52;4.20;99.90
12089;DHT22;6107;49.078;8.578;2022-12-07T04:20:19;4.20;99.90
12089;DHT22;6107;49.078;8.578;2022-12-07T04:22:45;4.20;99.90
12089;DHT22;6107;49.078;8.578;2022-12-07T04:25:10;4.20;99.90
12089;DHT22;6107;49.078;8.578;2022-12-07T04:27:36;4.10;99.90
12089;DHT22;6107;49.078;8.578;2022-12-07T04:30:02;4.10;99.90
12089;DHT22;6107;49.078;8.578;2022-12-07T04:32:27;4.10;99.90
12089;DHT22;6107;49.078;8.578;2022-12-07T04:34:53;4.10;99.90
12089;DHT22;6107;49.078;8.578;2022-12-07T04:37:18;4.10;99.90
12089;DHT22;6107;49.078;8.578;2022-12-07T04:39:44;4.20;99.90
12089;DHT22;6107;49.078;8.578;2022-12-07T04:42:10;4.00;99.90
12089;DHT22;6107;49.078;8.578;2022-12-07T04:44:36;4.00;99.90
12089;DHT22;6107;49.078;8.578;2022-12-07T04:47:02;4.10;99.90
12089;DHT22;6107;49.078;8.578;2022-12-07T04:49:27;4.00;99.90
12089;DHT22;6107;49.078;8.578;2022-12-07T04:51:53;4.10;99.90
12089;DHT22;6107;49.078;8.578;2022-12-07T04:54:19;4.00;99.90
12089;DHT22;6107;49.078;8.578;2022-12-07T04:56:45;4.00;99.90
12089;DHT22;6107;49.078;8.578;2022-12-07T04:59:12;4.00;99.90
12089;DHT22;6107;49.078;8.578;2022-12-07T05:01:38;4.00;99.90
12089;DHT22;6107;49.078;8.578;2022-12-07T05:04:04;4.00;99.90
12089;DHT22;6107;49.078;8.578;2022-12-07T05:06:29;4.10;99.90
12089;DHT22;6107;49.078;8.578;2022-12-07T05:08:55;4.10;99.90
12089;DHT22;6107;49.078;8.578;2022-12-07T05:11:21;4.20;99.90
12089;DHT22;6107;49.078;8.578;2022-12-07T05:14:22;4.00;99.90
12089;DHT22;6107;49.078;8.578;2022-12-07T05:16:50;4.10;99.90
12089;DHT22;6107;49.078;8.578;2022-12-07T05:19:16;4.00;99.90
12089;DHT22;6107;49.078;8.578;2022-12-07T05:21:42;4.00;99.90
12089;DHT22;6107;49.078;8.578;2022-12-07T05:24:10;4.00;99.90
12089;DHT22;6107;49.078;8.578;2022-12-07T05:26:37;4.00;99.90
12089;DHT22;6107;49.078;8.578;2022-12-07T05:29:03;4.00;99.90
12089;DHT22;6107;49.078;8.578;2022-12-07T05:31:28;4.00;99.90
12089;DHT22;6107;49.078;8.578;2022-12-07T05:33:54;3.90;99.90
12089;DHT22;6107;49.078;8.578;2022-12-07T05:36:20;3.90;99.90
12089;DHT22;6107;49.078;8.578;2022-12-07T05:38:46;3.90;99.90
12089;DHT22;6107;49.078;8.578;2022-12-07T05:41:14;4.00;99.90
12089;DHT22;6107;49.078;8.578;2022-12-07T05:43:59;3.90;99.90
12089;DHT22;6107;49.078;8.578;2022-12-07T05:46:25;4.00;99.90
12089;DHT22;6107;49.078;8.578;2022-12-07T05:48:50;4.00;99.90
12089;DHT22;6107;49.078;8.578;2022-12-07T05:51:16;3.90;99.90
12089;DHT22;6107;49.078;8.578;2022-12-07T05:53:42;3.90;99.90
12089;DHT22;6107;49.078;8.578;2022-12-07T05:56:07;4.00;99.90
12089;DHT22;6107;49.078;8.578;2022-12-07T05:58:33;3.90;99.90
12089;DHT22;6107;49.078;8.578;2022-12-07T06:01:17;3.90;99.90
12089;DHT22;6107;49.078;8.578;2022-12-07T06:03:42;4.00;99.90
12089;DHT22;6107;49.078;8.578;2022-12-07T06:06:08;4.00;99.90
12089;DHT22;6107;49.078;8.578;2022-12-07T06:08:33;4.00;99.90
12089;DHT22;6107;49.078;8.578;2022-12-07T06:10:59;4.00;99.90
12089;DHT22;6107;49.078;8.578;2022-12-07T06:13:43;4.10;99.90
12089;DHT22;6107;49.078;8.578;2022-12-07T06:16:08;4.00;99.90
12089;DHT22;6107;49.078;8.578;2022-12-07T06:18:34;4.00;99.90
12089;DHT22;6107;49.078;8.578;2022-12-07T06:20:59;4.00;99.90
12089;DHT22;6107;49.078;8.578;2022-12-07T06:23:25;4.00;99.90
12089;DHT22;6107;49.078;8.578;2022-12-07T06:25:51;4.00;99.90
12089;DHT22;6107;49.078;8.578;2022-12-07T06:28:16;4.00;99.90
12089;DHT22;6107;49.078;8.578;2022-12-07T06:30:42;3.90;99.90
12089;DHT22;6107;49.078;8.578;2022-12-07T06:33:07;4.00;99.90
12089;DHT22;6107;49.078;8.578;2022-12-07T06:35:33;3.90;99.90
12089;DHT22;6107;49.078;8.578;2022-12-07T06:37:59;3.90;99.90
12089;DHT22;6107;49.078;8.578;2022-12-07T06:40:24;3.90;99.90
12089;DHT22;6107;49.078;8.578;2022-12-07T06:42:50;3.90;99.90
12089;DHT22;6107;49.078;8.578;2022-12-07T06:45:15;3.90;99.90
12089;DHT22;6107;49.078;8.578;2022-12-07T06:47:41;3.90;99.90
12089;DHT22;6107;49.078;8.578;2022-12-07T06:50:07;3.90;99.90
12089;DHT22;6107;49.078;8.578;2022-12-07T06:52:33;4.00;99.90
12089;DHT22;6107;49.078;8.578;2022-12-07T06:54:59;3.90;99.90
12089;DHT22;6107;49.078;8.578;2022-12-07T06:57:25;3.90;99.90
12089;DHT22;6107;49.078;8.578;2022-12-07T06:59:50;3.90;99.90
12089;DHT22;6107;49.078;8.578;2022-12-07T07:02:17;4.00;99.90
12089;DHT22;6107;49.078;8.578;2022-12-07T07:04:43;4.00;99.90
12089;DHT22;6107;49.078;8.578;2022-12-07T07:07:08;3.90;99.90
12089;DHT22;6107;49.078;8.578;2022-12-07T07:09:34;4.00;99.90
12089;DHT22;6107;49.078;8.578;2022-12-07T07:12:00;4.00;99.90
12089;DHT22;6107;49.078;8.578;2022-12-07T07:14:25;4.00;99.90
12089;DHT22;6107;49.078;8.578;2022-12-07T07:16:51;4.00;99.90
12089;DHT22;6107;49.078;8.578;2022-12-07T07:19:17;3.90;99.90
12089;DHT22;6107;49.078;8.578;2022-12-07T07:21:43;3.90;99.90
12089;DHT22;6107;49.078;8.578;2022-12-07T07:24:08;3.90;99.90
12089;DHT22;6107;49.078;8.578;2022-12-07T07:26:34;4.00;99.90
12089;DHT22;6107;49.078;8.578;2022-12-07T07:29:02;3.90;99.90
12089;DHT22;6107;49.078;8.578;2022-12-07T07:31:28;3.90;99.90
12089;DHT22;6107;49.078;8.578;2022-12-07T07:33:53;3.90;99.90
12089;DHT22;6107;49.078;8.578;2022-12-07T07:36:19;3.90;99.90
12089;DHT22;6107;49.078;8.578;2022-12-07T07:38:45;3.90;99.90
12089;DHT22;6107;49.078;8.578;2022-12-07T07:41:11;3.90;99.90
12089;DHT22;6107;49.078;8.578;2022-12-07T07:43:36;3.90;99.90
12089;DHT22;6107;49.078;8.578;2022-12-07T07:46:02;4.00;99.90
12089;DHT22;6107;49.078;8.578;2022-12-07T07:48:28;4.10;99.90
12089;DHT22;6107;49.078;8.578;2022-12-07T07:50:53;4.10;99.90
12089;DHT22;6107;49.078;8.578;2022-12-07T07:53:19;4.10;99.90
12089;DHT22;6107;49.078;8.578;2022-12-07T07:55:52;4.10;99.90
12089;DHT22;6107;49.078;8.578;2022-12-07T07:58:18;4.10;99.90
12089;DHT22;6107;49.078;8.578;2022-12-07T08:00:44;4.10;99.90
12089;DHT22;6107;49.078;8.578;2022-12-07T08:03:09;4.10;99.90
12089;DHT22;6107;49.078;8.578;2022-12-07T08:05:37;4.00;99.90
12089;DHT22;6107;49.078;8.578;2022-12-07T08:08:02;4.00;99.90
12089;DHT22;6107;49.078;8.578;2022-12-07T08:10:28;4.00;99.90
12089;DHT22;6107;49.078;8.578;2022-12-07T08:12:54;4.10;99.90
12089;DHT22;6107;49.078;8.578;2022-12-07T08:15:41;4.10;99.90
12089;DHT22;6107;49.078;8.578;2022-12-07T08:18:07;4.20;99.90
12089;DHT22;6107;49.078;8.578;2022-12-07T08:20:33;4.10;99.90
12089;DHT22;6107;49.078;8.578;2022-12-07T08:22:59;4.20;99.90
12089;DHT22;6107;49.078;8.578;2022-12-07T08:25:25;4.10;99.90
12089;DHT22;6107;49.078;8.578;2022-12-07T08:27:52;4.10;99.90
12089;DHT22;6107;49.078;8.578;2022-12-07T08:30:18;4.30;99.90
12089;DHT22;6107;49.078;8.578;2022-12-07T08:32:47;4.20;99.90
12089;DHT22;6107;49.078;8.578;2022-12-07T08:35:13;4.20;99.90
12089;DHT22;6107;49.078;8.578;2022-12-07T08:37:39;4.20;99.90
12089;DHT22;6107;49.078;8.578;2022-12-07T08:40:06;4.20;99.90
12089;DHT22;6107;49.078;8.578;2022-12-07T08:42:32;4.20;99.90
12089;DHT22;6107;49.078;8.578;2022-12-07T08:45:06;4.20;99.90
12089;DHT22;6107;49.078;8.578;2022-12-07T08:47:43;4.20;99.90
12089;DHT22;6107;49.078;8.578;2022-12-07T08:50:10;4.20;99.90
12089;DHT22;6107;49.078;8.578;2022-12-07T08:52:37;4.30;99.90
12089;DHT22;6107;49.078;8.578;2022-12-07T08:55:05;4.20;99.90
12089;DHT22;6107;49.078;8.578;2022-12-07T08:57:33;4.20;99.90
12089;DHT22;6107;49.078;8.578;2022-12-07T09:00:00;4.30;99.90
12089;DHT22;6107;49.078;8.578;2022-12-07T09:02:25;4.20;99.90
12089;DHT22;6107;49.078;8.578;2022-12-07T09:04:51;4.30;99.90
12089;DHT22;6107;49.078;8.578;2022-12-07T09:07:17;4.30;99.90
12089;DHT22;6107;49.078;8.578;2022-12-07T09:09:43;4.30;99.90
12089;DHT22;6107;49.078;8.578;2022-12-07T09:12:08;4.40;99.90
12089;DHT22;6107;49.078;8.578;2022-12-07T09:14:34;4.40;99.90
12089;DHT22;6107;49.078;8.578;2022-12-07T09:17:07;4.50;99.90
12089;DHT22;6107;49.078;8.578;2022-12-07T09:19:33;4.50;99.90
12089;DHT22;6107;49.078;8.578;2022-12-07T09:21:59;4.70;99.90
12089;DHT22;6107;49.078;8.578;2022-12-07T09:24:27;4.50;99.90
12089;DHT22;6107;49.078;8.578;2022-12-07T09:26:53;4.60;99.90
12089;DHT22;6107;49.078;8.578;2022-12-07T09:29:18;4.60;99.90
12089;DHT22;6107;49.078;8.578;2022-12-07T09:31:44;4.70;99.90
12089;DHT22;6107;49.078;8.578;2022-12-07T09:34:09;4.70;99.90
12089;DHT22;6107;49.078;8.578;2022-12-07T09:36:35;4.70;99.90
12089;DHT22;6107;49.078;8.578;2022-12-07T09:39:01;4.70;99.90
12089;DHT22;6107;49.078;8.578;2022-12-07T09:41:29;4.70;99.90
12089;DHT22;6107;49.078;8.578;2022-12-07T09:44:12;4.70;99.90
12089;DHT22;6107;49.078;8.578;2022-12-07T09:46:40;4.90;99.90
12089;DHT22;6107;49.078;8.578;2022-12-07T09:49:20;4.90;99.90
12089;DHT22;6107;49.078;8.578;2022-12-07T09:51:46;5.10;99.90
12089;DHT22;6107;49.078;8.578;2022-12-07T09:54:14;5.10;99.90
12089;DHT22;6107;49.078;8.578;2022-12-07T09:56:41;4.90;99.90
12089;DHT22;6107;49.078;8.578;2022-12-07T09:59:13;5.00;99.90
12089;DHT22;6107;49.078;8.578;2022-12-07T10:01:41;5.00;99.90
12089;DHT22;6107;49.078;8.578;2022-12-07T10:04:22;5.20;99.90
12089;DHT22;6107;49.078;8.578;2022-12-07T10:06:49;5.20;99.90
12089;DHT22;6107;49.078;8.578;2022-12-07T10:09:21;5.20;99.90
12089;DHT22;6107;49.078;8.578;2022-12-07T10:12:09;5.40;99.90
12089;DHT22;6107;49.078;8.578;2022-12-07T10:14:40;5.40;99.90
12089;DHT22;6107;49.078;8.578;2022-12-07T10:20:35;5.40;99.90
12089;DHT22;6107;49.078;8.578;2022-12-07T10:23:04;5.40;99.90
12089;DHT22;6107;49.078;8.578;2022-12-07T10:25:32;5.30;99.90
12089;DHT22;6107;49.078;8.578;2022-12-07T10:28:10;5.20;99.90
12089;DHT22;6107;49.078;8.578;2022-12-07T10:33:36;5.30;99.90
12089;DHT22;6107;49.078;8.578;2022-12-07T10:36:18;5.40;99.90
12089;DHT22;6107;49.078;8.578;2022-12-07T10:38:53;5.20;99.90
12089;DHT22;6107;49.078;8.578;2022-12-07T10:41:23;5.20;99.90
12089;DHT22;6107;49.078;8.578;2022-12-07T10:43:52;5.20;99.90
12089;DHT22;6107;49.078;8.578;2022-12-07T10:49:13;5.00;99.90
12089;DHT22;6107;49.078;8.578;2022-12-07T10:51:46;5.00;99.90
12089;DHT22;6107;49.078;8.578;2022-12-07T10:54:45;5.20;99.90
12089;DHT22;6107;49.078;8.578;2022-12-07T11:08:13;5.00;99.90
12089;DHT22;6107;49.078;8.578;2022-12-07T11:14:06;5.20;99.90
12089;DHT22;6107;49.078;8.578;2022-12-07T11:19:32;5.10;99.90
12089;DHT22;6107;49.078;8.578;2022-12-07T11:22:16;5.20;99.90
12089;DHT22;6107;49.078;8.578;2022-12-07T11:32:44;5.30;99.90
12089;DHT22;6107;49.078;8.578;2022-12-07T11:38:17;4.90;99.90
12089;DHT22;6107;49.078;8.578;2022-12-07T11:40:46;5.10;99.90
12089;DHT22;6107;49.078;8.578;2022-12-07T11:43:22;5.20;99.90
12089;DHT22;6107;49.078;8.578;2022-12-07T11:46:09;5.30;99.90
12089;DHT22;6107;49.078;8.578;2022-12-07T11:48:41;5.40;99.90
12089;DHT22;6107;49.078;8.578;2022-12-07T11:51:11;5.50;99.90
12089;DHT22;6107;49.078;8.578;2022-12-07T11:53:45;5.50;99.90
12089;DHT22;6107;49.078;8.578;2022-12-07T11:56:17;5.50;99.90
12089;DHT22;6107;49.078;8.578;2022-12-07T11:58:49;5.50;99.90
12089;DHT22;6107;49.078;8.578;2022-12-07T12:06:38;5.50;99.90
12089;DHT22;6107;49.078;8.578;2022-12-07T12:12:21;5.70;99.90
12089;DHT22;6107;49.078;8.578;2022-12-07T12:23:21;5.60;99.90
12089;DHT22;6107;49.078;8.578;2022-12-07T12:25:59;5.60;99.90
12089;DHT22;6107;49.078;8.578;2022-12-07T12:31:32;6.20;99.90
12089;DHT22;6107;49.078;8.578;2022-12-07T12:34:02;6.30;99.90
12089;DHT22;6107;49.078;8.578;2022-12-07T12:57:18;6.00;99.90
12089;DHT22;6107;49.078;8.578;2022-12-07T13:02:27;5.90;99.90
12089;DHT22;6107;49.078;8.578;2022-12-07T13:07:49;5.70;99.90
12089;DHT22;6107;49.078;8.578;2022-12-07T13:20:59;5.60;99.90
12089;DHT22;6107;49.078;8.578;2022-12-07T13:26:19;5.50;99.90
12089;DHT22;6107;49.078;8.578;2022-12-07T13:31:37;5.50;99.90
12089;DHT22;6107;49.078;8.578;2022-12-07T13:34:05;5.40;99.90
12089;DHT22;6107;49.078;8.578;2022-12-07T13:36:51;5.30;99.90
12089;DHT22;6107;49.078;8.578;2022-12-07T13:39:19;5.40;99.90
12089;DHT22;6107;49.078;8.578;2022-12-07T13:41:49;5.20;99.90
12089;DHT22;6107;49.078;8.578;2022-12-07T13:44:17;5.40;99.90
12089;DHT22;6107;49.078;8.578;2022-12-07T13:49:46;5.30;99.90
12089;DHT22;6107;49.078;8.578;2022-12-07T13:52:26;5.40;99.90
12089;DHT22;6107;49.078;8.578;2022-12-07T13:57:33;5.30;99.90
12089;DHT22;6107;49.078;8.578;2022-12-07T14:00:04;5.20;99.90
12089;DHT22;6107;49.078;8.578;2022-12-07T14:02:32;5.20;99.90
12089;DHT22;6107;49.078;8.578;2022-12-07T14:05:16;5.20;99.90
12089;DHT22;6107;49.078;8.578;2022-12-07T14:10:34;5.20;99.90
12089;DHT22;6107;49.078;8.578;2022-12-07T14:13:01;5.40;99.90
12089;DHT22;6107;49.078;8.578;2022-12-07T14:15:32;5.30;99.90
12089;DHT22;6107;49.078;8.578;2022-12-07T14:17:59;5.30;99.90
12089;DHT22;6107;49.078;8.578;2022-12-07T14:20:38;5.30;99.90
12089;DHT22;6107;49.078;8.578;2022-12-07T14:23:05;5.30;99.90
12089;DHT22;6107;49.078;8.578;2022-12-07T14:25:51;5.40;99.90
12089;DHT22;6107;49.078;8.578;2022-12-07T14:28:28;5.30;99.90
12089;DHT22;6107;49.078;8.578;2022-12-07T14:30:54;5.30;99.90
12089;DHT22;6107;49.078;8.578;2022-12-07T14:33:21;5.30;99.90
12089;DHT22;6107;49.078;8.578;2022-12-07T14:35:47;5.20;99.90
12089;DHT22;6107;49.078;8.578;2022-12-07T14:38:12;5.20;99.90
12089;DHT22;6107;49.078;8.578;2022-12-07T14:40:38;5.20;99.90
12089;DHT22;6107;49.078;8.578;2022-12-07T14:43:11;5.30;99.90
12089;DHT22;6107;49.078;8.578;2022-12-07T14:45:38;5.30;99.90
12089;DHT22;6107;49.078;8.578;2022-12-07T14:48:14;5.30;99.90
12089;DHT22;6107;49.078;8.578;2022-12-07T14:50:43;5.20;99.90
12089;DHT22;6107;49.078;8.578;2022-12-07T14:53:13;5.30;99.90
12089;DHT22;6107;49.078;8.578;2022-12-07T14:55:39;6.30;99.90
12089;DHT22;6107;49.078;8.578;2022-12-07T14:58:05;5.80;99.90
12089;DHT22;6107;49.078;8.578;2022-12-07T15:00:30;5.50;99.90
12089;DHT22;6107;49.078;8.578;2022-12-07T15:02:57;5.40;99.90
12089;DHT22;6107;49.078;8.578;2022-12-07T15:05:22;5.30;99.90
12089;DHT22;6107;49.078;8.578;2022-12-07T15:07:50;5.30;99.90
12089;DHT22;6107;49.078;8.578;2022-12-07T15:10:22;5.40;99.90
12089;DHT22;6107;49.078;8.578;2022-12-07T15:12:48;5.30;99.90
12089;DHT22;6107;49.078;8.578;2022-12-07T15:15:14;5.30;99.90
12089;DHT22;6107;49.078;8.578;2022-12-07T15:17:39;5.20;99.90
12089;DHT22;6107;49.078;8.578;2022-12-07T15:20:08;5.00;99.90
12089;DHT22;6107;49.078;8.578;2022-12-07T15:22:36;5.00;99.90
12089;DHT22;6107;49.078;8.578;2022-12-07T15:25:01;5.10;99.90
12089;DHT22;6107;49.078;8.578;2022-12-07T15:27:30;5.00;99.90
12089;DHT22;6107;49.078;8.578;2022-12-07T15:29:55;5.00;99.90
12089;DHT22;6107;49.078;8.578;2022-12-07T15:32:21;4.90;99.90
12089;DHT22;6107;49.078;8.578;2022-12-07T15:34:48;4.90;99.90
12089;DHT22;6107;49.078;8.578;2022-12-07T15:37:13;6.70;99.90
12089;DHT22;6107;49.078;8.578;2022-12-07T15:39:39;5.60;99.90
12089;DHT22;6107;49.078;8.578;2022-12-07T15:42:04;5.10;99.90
12089;DHT22;6107;49.078;8.578;2022-12-07T15:44:55;4.90;99.90
12089;DHT22;6107;49.078;8.578;2022-12-07T15:47:41;4.90;99.90
12089;DHT22;6107;49.078;8.578;2022-12-07T15:50:09;4.90;99.90
12089;DHT22;6107;49.078;8.578;2022-12-07T15:52:35;4.80;99.90
12089;DHT22;6107;49.078;8.578;2022-12-07T15:55:01;4.80;99.90
12089;DHT22;6107;49.078;8.578;2022-12-07T15:57:29;4.80;99.90
12089;DHT22;6107;49.078;8.578;2022-12-07T15:59:54;4.80;99.90
12089;DHT22;6107;49.078;8.578;2022-12-07T16:02:20;4.90;99.90
12089;DHT22;6107;49.078;8.578;2022-12-07T16:04:45;4.80;99.90
12089;DHT22;6107;49.078;8.578;2022-12-07T16:07:11;4.90;99.90
12089;DHT22;6107;49.078;8.578;2022-12-07T16:09:39;4.90;99.90
12089;DHT22;6107;49.078;8.578;2022-12-07T16:12:05;4.80;99.90
12089;DHT22;6107;49.078;8.578;2022-12-07T16:14:31;4.80;99.90
12089;DHT22;6107;49.078;8.578;2022-12-07T16:16:58;4.80;99.90
12089;DHT22;6107;49.078;8.578;2022-12-07T16:19:24;4.70;99.90
12089;DHT22;6107;49.078;8.578;2022-12-07T16:21:50;4.80;99.90
12089;DHT22;6107;49.078;8.578;2022-12-07T16:24:15;4.50;99.90
12089;DHT22;6107;49.078;8.578;2022-12-07T16:26:42;4.50;99.90
12089;DHT22;6107;49.078;8.578;2022-12-07T16:29:11;4.60;99.90
12089;DHT22;6107;49.078;8.578;2022-12-07T16:31:37;4.80;99.90
12089;DHT22;6107;49.078;8.578;2022-12-07T16:34:03;4.80;99.90
12089;DHT22;6107;49.078;8.578;2022-12-07T16:36:29;4.70;99.90
12089;DHT22;6107;49.078;8.578;2022-12-07T16:38:54;4.70;99.90
12089;DHT22;6107;49.078;8.578;2022-12-07T16:41:20;4.60;99.90
12089;DHT22;6107;49.078;8.578;2022-12-07T16:43:46;4.60;99.90
12089;DHT22;6107;49.078;8.578;2022-12-07T16:46:11;4.60;99.90
12089;DHT22;6107;49.078;8.578;2022-12-07T16:48:37;4.50;99.90
12089;DHT22;6107;49.078;8.578;2022-12-07T16:51:08;4.50;99.90
12089;DHT22;6107;49.078;8.578;2022-12-07T16:53:35;4.60;99.90
12089;DHT22;6107;49.078;8.578;2022-12-07T16:56:01;4.70;99.90
12089;DHT22;6107;49.078;8.578;2022-12-07T16:58:28;4.60;99.90
12089;DHT22;6107;49.078;8.578;2022-12-07T17:00:53;4.60;99.90
12089;DHT22;6107;49.078;8.578;2022-12-07T17:03:19;4.70;99.90
12089;DHT22;6107;49.078;8.578;2022-12-07T17:05:46;4.60;99.90
12089;DHT22;6107;49.078;8.578;2022-12-07T17:08:13;4.50;99.90
12089;DHT22;6107;49.078;8.578;2022-12-07T17:10:41;4.70;99.90
12089;DHT22;6107;49.078;8.578;2022-12-07T17:13:08;4.60;99.90
12089;DHT22;6107;49.078;8.578;2022-12-07T17:19:16;4.50;99.90
12089;DHT22;6107;49.078;8.578;2022-12-07T17:21:42;4.50;99.90
12089;DHT22;6107;49.078;8.578;2022-12-07T17:24:10;4.40;99.90
12089;DHT22;6107;49.078;8.578;2022-12-07T17:26:36;4.40;99.90
12089;DHT22;6107;49.078;8.578;2022-12-07T17:29:03;4.40;99.90
12089;DHT22;6107;49.078;8.578;2022-12-07T17:31:29;4.50;99.90
12089;DHT22;6107;49.078;8.578;2022-12-07T17:33:55;4.50;99.90
12089;DHT22;6107;49.078;8.578;2022-12-07T17:36:22;4.50;99.90
12089;DHT22;6107;49.078;8.578;2022-12-07T17:38:48;4.50;99.90
12089;DHT22;6107;49.078;8.578;2022-12-07T17:41:16;4.50;99.90
12089;DHT22;6107;49.078;8.578;2022-12-07T17:44:04;5.30;99.90
12089;DHT22;6107;49.078;8.578;2022-12-07T17:46:30;4.90;99.90
12089;DHT22;6107;49.078;8.578;2022-12-07T17:48:56;4.80;99.90
12089;DHT22;6107;49.078;8.578;2022-12-07T17:51:22;4.70;99.90
12089;DHT22;6107;49.078;8.578;2022-12-07T17:54:07;4.60;99.90
12089;DHT22;6107;49.078;8.578;2022-12-07T17:56:33;4.60;99.90
12089;DHT22;6107;49.078;8.578;2022-12-07T17:58:58;4.50;99.90
12089;DHT22;6107;49.078;8.578;2022-12-07T18:01:24;4.60;99.90
12089;DHT22;6107;49.078;8.578;2022-12-07T18:03:49;4.50;99.90
12089;DHT22;6107;49.078;8.578;2022-12-07T18:06:15;4.60;99.90
12089;DHT22;6107;49.078;8.578;2022-12-07T18:08:40;4.50;99.90
12089;DHT22;6107;49.078;8.578;2022-12-07T18:11:06;4.50;99.90
12089;DHT22;6107;49.078;8.578;2022-12-07T18:13:32;4.50;99.90
12089;DHT22;6107;49.078;8.578;2022-12-07T18:16:07;4.50;99.90
12089;DHT22;6107;49.078;8.578;2022-12-07T18:18:34;4.40;99.90
12089;DHT22;6107;49.078;8.578;2022-12-07T18:21:06;4.40;99.90
12089;DHT22;6107;49.078;8.578;2022-12-07T18:23:32;4.40;99.90
12089;DHT22;6107;49.078;8.578;2022-12-07T18:25:59;4.50;99.90
12089;DHT22;6107;49.078;8.578;2022-12-07T18:28:25;4.50;99.90
12089;DHT22;6107;49.078;8.578;2022-12-07T18:30:50;4.50;99.90
12089;DHT22;6107;49.078;8.578;2022-12-07T18:33:17;4.50;99.90